Time;durP1;ratioP1;P1;durP2;ratioP2;P2;SDS_P1;SDS_P2;PMS_P1;PMS_P2;Temp;Humidity;BMP_temperature;BMP_pressure;BME280_temperature;BME280_humidity;BME280_pressure;Samples;Min_cycle;Max_cycle;Signal;HPM_P1;HPM_P2
2021/11/26 00:01:05;;;;;;;16.10;10.48;;;5.40;97.60;;;;;;5015540;28;20596;-81
2021/11/26 00:03:31;;;;;;;15.10;11.10;;;5.40;97.60;;;;;;5024014;28;20041;-80
2021/11/26 00:05:58;;;;;;;15.57;10.48;;;5.40;97.50;;;;;;5020159;28;20030;-80
2021/11/26 00:08:23;;;;;;;14.63;10.88;;;5.40;97.50;;;;;;5025306;28;20032;-80
2021/11/26 00:10:49;;;;;;;16.60;10.57;;;5.40;97.40;;;;;;5025811;28;20041;-80
2021/11/26 00:13:15;;;;;;;18.25;11.60;;;5.30;97.50;;;;;;5012577;28;20049;-80
2021/11/26 00:15:41;;;;;;;14.20;9.68;;;5.30;97.60;;;;;;5030236;28;20032;-80
2021/11/26 00:18:11;;;;;;;16.88;10.82;;;5.30;97.60;;;;;;5016530;28;20495;-80
2021/11/26 00:20:38;;;;;;;14.93;10.15;;;5.30;97.70;;;;;;5014800;28;20087;-80
2021/11/26 00:23:05;;;;;;;16.73;11.05;;;5.30;97.80;;;;;;5031427;28;20038;-80
2021/11/26 00:25:31;;;;;;;14.13;10.70;;;5.30;97.70;;;;;;5015616;28;20111;-80
2021/11/26 00:27:57;;;;;;;14.75;10.13;;;5.30;97.70;;;;;;5016753;28;20037;-81
2021/11/26 00:30:23;;;;;;;14.27;10.25;;;5.30;97.80;;;;;;5025436;28;20037;-81
2021/11/26 00:32:49;;;;;;;16.85;11.32;;;5.20;97.90;;;;;;5017648;28;20056;-80
2021/11/26 00:35:14;;;;;;;13.20;10.13;;;5.30;97.80;;;;;;5029365;28;20470;-80
2021/11/26 00:37:40;;;;;;;14.02;10.15;;;5.20;97.70;;;;;;5022341;28;20463;-81
2021/11/26 00:40:07;;;;;;;15.63;10.75;;;5.20;97.60;;;;;;5023270;28;20049;-81
2021/11/26 00:42:32;;;;;;;16.90;11.43;;;5.20;97.60;;;;;;5024106;28;20077;-80
2021/11/26 00:44:58;;;;;;;16.35;11.43;;;5.20;97.80;;;;;;5019473;28;20048;-80
2021/11/26 00:47:23;;;;;;;16.35;11.00;;;5.10;97.80;;;;;;5031412;28;20034;-80
2021/11/26 00:49:50;;;;;;;16.88;11.60;;;5.10;97.90;;;;;;5049464;28;20029;-81
2021/11/26 00:52:16;;;;;;;14.93;10.65;;;5.10;97.90;;;;;;5019446;28;20022;-81
2021/11/26 00:54:42;;;;;;;17.52;11.88;;;5.10;98.00;;;;;;5020375;28;20259;-81
2021/11/26 00:57:08;;;;;;;21.52;12.23;;;5.10;98.00;;;;;;5026607;28;20056;-80
2021/11/26 00:59:37;;;;;;;18.00;10.73;;;5.10;98.00;;;;;;5029013;28;20034;-81
2021/11/26 01:02:04;;;;;;;15.45;11.25;;;5.00;98.10;;;;;;5028918;28;20394;-81
2021/11/26 01:04:30;;;;;;;19.05;11.55;;;5.00;98.20;;;;;;5029524;28;20024;-80
2021/11/26 01:06:56;;;;;;;18.73;11.95;;;5.00;98.20;;;;;;5036922;28;20034;-80
2021/11/26 01:09:22;;;;;;;15.68;10.30;;;5.00;98.20;;;;;;5022405;28;20036;-81
2021/11/26 01:11:48;;;;;;;16.42;11.23;;;5.00;98.20;;;;;;5040574;28;20486;-80
2021/11/26 01:17:41;;;;;;;19.30;11.32;;;5.10;98.10;;;;;;5013276;28;20036;-79
2021/11/26 01:20:13;;;;;;;17.13;11.73;;;5.10;98.20;;;;;;5024096;28;20072;-80
2021/11/26 01:22:39;;;;;;;;;;;5.00;98.10;;;;;;5011178;28;20562;-79
2021/11/26 01:25:07;;;;;;;17.33;11.00;;;5.00;98.20;;;;;;5027411;28;20003;-79
2021/11/26 01:27:33;;;;;;;20.88;11.23;;;4.90;98.30;;;;;;5026592;28;20044;-80
2021/11/26 01:29:58;;;;;;;15.63;11.20;;;4.90;98.50;;;;;;5028645;28;20034;-79
2021/11/26 01:32:24;;;;;;;17.48;10.80;;;4.90;98.30;;;;;;5023922;28;20033;-80
2021/11/26 01:34:49;;;;;;;20.38;11.52;;;4.90;98.20;;;;;;5030814;28;20375;-79
2021/11/26 01:37:15;;;;;;;17.35;10.88;;;4.80;98.20;;;;;;5021105;28;20029;-79
2021/11/26 01:39:40;;;;;;;16.70;10.80;;;4.80;98.30;;;;;;5032476;28;20073;-79
2021/11/26 01:42:06;;;;;;;17.73;10.90;;;4.70;98.50;;;;;;5029304;28;20056;-79
2021/11/26 01:44:31;;;;;;;15.65;11.00;;;4.70;98.70;;;;;;5021864;28;20545;-79
2021/11/26 01:46:57;;;;;;;19.35;12.15;;;4.70;98.70;;;;;;5020240;28;20418;-80
2021/11/26 01:49:22;;;;;;;15.35;10.40;;;4.70;98.70;;;;;;5032555;28;20489;-79
2021/11/26 01:51:48;;;;;;;18.42;12.23;;;4.60;98.80;;;;;;5027366;28;20037;-79
2021/11/26 01:54:13;;;;;;;20.10;11.55;;;4.70;98.90;;;;;;5031228;28;20029;-79
2021/11/26 01:56:39;;;;;;;16.05;11.20;;;4.70;98.90;;;;;;5029890;28;20454;-80
2021/11/26 01:59:05;;;;;;;15.48;10.75;;;4.70;98.80;;;;;;5034837;28;20038;-79
2021/11/26 02:01:31;;;;;;;17.98;12.02;;;4.70;98.80;;;;;;5053529;28;20060;-80
2021/11/26 02:03:57;;;;;;;18.70;11.20;;;4.70;98.90;;;;;;5022206;28;20053;-80
2021/11/26 02:06:22;;;;;;;14.68;11.35;;;4.60;98.80;;;;;;5031685;28;20521;-80
2021/11/26 02:08:49;;;;;;;17.75;11.25;;;4.60;98.80;;;;;;5029337;28;20049;-80
2021/11/26 02:11:15;;;;;;;19.38;12.07;;;4.60;99.00;;;;;;5028825;28;20025;-80
2021/11/26 02:13:42;;;;;;;19.02;11.48;;;4.60;99.10;;;;;;5024514;28;20447;-80
2021/11/26 02:16:08;;;;;;;17.30;11.68;;;4.60;99.20;;;;;;5015188;28;20491;-80
2021/11/26 02:18:33;;;;;;;20.27;11.93;;;4.50;99.20;;;;;;5018499;28;20037;-80
2021/11/26 02:20:59;;;;;;;15.85;10.65;;;4.50;99.30;;;;;;5021468;28;20046;-80
2021/11/26 02:23:24;;;;;;;19.60;10.98;;;4.50;99.30;;;;;;5014417;28;20049;-80
2021/11/26 02:25:50;;;;;;;27.45;11.98;;;4.50;99.40;;;;;;5023356;28;20029;-80
2021/11/26 02:28:18;;;;;;;15.13;10.82;;;4.60;99.40;;;;;;5016987;28;20022;-80
2021/11/26 02:30:44;;;;;;;24.23;12.43;;;4.60;99.30;;;;;;5029147;28;20088;-80
2021/11/26 02:33:16;;;;;;;16.00;11.45;;;4.60;99.30;;;;;;5024694;28;20087;-80
2021/11/26 02:35:47;;;;;;;13.88;10.18;;;4.60;99.20;;;;;;5022128;28;20436;-80
2021/11/26 02:38:14;;;;;;;17.90;10.68;;;4.60;99.20;;;;;;5017502;28;20091;-80
2021/11/26 02:40:41;;;;;;;20.30;11.18;;;4.70;99.10;;;;;;5024379;28;20037;-80
2021/11/26 02:43:08;;;;;;;19.60;11.52;;;4.70;99.10;;;;;;5040476;28;20053;-80
2021/11/26 02:45:35;;;;;;;17.33;12.10;;;4.70;99.00;;;;;;5023768;28;20607;-80
2021/11/26 02:48:00;;;;;;;19.45;10.82;;;4.70;99.00;;;;;;5029270;28;20064;-79
2021/11/26 02:50:27;;;;;;;18.45;11.13;;;4.80;98.90;;;;;;5026583;28;20073;-79
2021/11/26 02:52:54;;;;;;;17.95;11.15;;;4.80;98.80;;;;;;5025154;28;20040;-79
2021/11/26 02:55:24;;;;;;;20.00;11.32;;;4.90;98.90;;;;;;5027694;28;20105;-79
2021/11/26 02:57:50;;;;;;;20.30;11.38;;;4.80;98.80;;;;;;5029911;28;20129;-79
2021/11/26 03:00:19;;;;;;;16.17;10.73;;;4.90;98.80;;;;;;5029046;28;20026;-80
2021/11/26 03:02:45;;;;;;;16.05;10.32;;;4.90;98.80;;;;;;5013327;28;20033;-79
2021/11/26 03:05:11;;;;;;;14.15;10.18;;;4.90;98.90;;;;;;5016127;28;20040;-80
2021/11/26 03:07:37;;;;;;;21.30;11.50;;;4.90;98.70;;;;;;5020405;28;20041;-80
2021/11/26 03:10:05;;;;;;;20.15;10.60;;;4.90;98.70;;;;;;5024003;28;20080;-80
2021/11/26 03:12:30;;;;;;;16.00;10.27;;;4.90;98.60;;;;;;5019889;28;20060;-80
2021/11/26 03:14:56;;;;;;;21.67;12.30;;;4.90;98.70;;;;;;5029012;28;20405;-80
2021/11/26 03:17:22;;;;;;;15.23;9.27;;;4.90;98.70;;;;;;5018192;28;20029;-80
2021/11/26 03:19:48;;;;;;;19.30;11.38;;;4.90;98.70;;;;;;5040223;28;20093;-80
2021/11/26 03:22:14;;;;;;;19.83;10.45;;;4.90;98.60;;;;;;5046272;28;20041;-80
2021/11/26 03:24:39;;;;;;;16.58;10.90;;;5.00;98.50;;;;;;5029298;28;20068;-80
2021/11/26 03:27:05;;;;;;;14.88;10.05;;;5.00;98.40;;;;;;5031877;28;20112;-80
2021/11/26 03:29:30;;;;;;;16.50;10.45;;;5.00;98.60;;;;;;5031631;28;20458;-80
2021/11/26 03:31:57;;;;;;;16.77;10.55;;;5.00;98.50;;;;;;5031624;28;20048;-80
2021/11/26 03:34:22;;;;;;;15.82;10.10;;;5.00;98.40;;;;;;5026328;28;20236;-80
2021/11/26 03:36:48;;;;;;;15.65;9.77;;;5.00;98.60;;;;;;5028761;28;20829;-80
2021/11/26 03:39:14;;;;;;;18.95;10.77;;;5.00;98.40;;;;;;5032750;28;20105;-79
2021/11/26 03:41:39;;;;;;;16.20;10.13;;;5.10;98.30;;;;;;5029044;28;20041;-80
2021/11/26 03:44:05;;;;;;;17.35;9.60;;;5.10;98.20;;;;;;5021387;28;20041;-80
2021/11/26 03:46:30;;;;;;;15.73;10.88;;;5.10;98.00;;;;;;5028018;28;20044;-80
2021/11/26 03:48:56;;;;;;;17.40;11.30;;;5.10;98.10;;;;;;5035354;28;20044;-80
2021/11/26 03:51:21;;;;;;;14.57;9.25;;;5.10;98.10;;;;;;5026594;28;20026;-80
2021/11/26 03:53:47;;;;;;;18.75;11.18;;;5.10;98.10;;;;;;5027043;28;20037;-80
2021/11/26 03:56:12;;;;;;;16.27;10.50;;;5.10;98.10;;;;;;5016887;28;20041;-80
2021/11/26 03:58:38;;;;;;;21.52;10.20;;;5.10;98.00;;;;;;5013042;28;20033;-80
2021/11/26 04:01:03;;;;;;;17.15;10.98;;;5.10;98.10;;;;;;5022848;28;20057;-80
2021/11/26 04:03:29;;;;;;;18.90;11.73;;;5.10;98.10;;;;;;5031807;28;20116;-80
2021/11/26 04:05:54;;;;;;;16.58;10.07;;;5.10;98.20;;;;;;5020156;28;20038;-80
2021/11/26 04:08:20;;;;;;;17.38;11.15;;;5.10;98.30;;;;;;5027685;28;20029;-80
2021/11/26 04:10:45;;;;;;;17.90;11.50;;;5.00;98.30;;;;;;5019660;28;20041;-80
2021/11/26 04:13:13;;;;;;;17.83;10.02;;;5.00;98.30;;;;;;5013370;28;20025;-80
2021/11/26 04:15:39;;;;;;;14.95;10.73;;;5.00;98.30;;;;;;5020203;28;20419;-80
2021/11/26 04:18:06;;;;;;;22.80;11.50;;;5.10;98.40;;;;;;5022778;28;20033;-80
2021/11/26 04:20:32;;;;;;;15.68;10.90;;;5.10;98.50;;;;;;5024539;28;20044;-80
2021/11/26 04:22:58;;;;;;;17.83;11.20;;;5.10;98.50;;;;;;5031889;28;20030;-80
2021/11/26 04:25:24;;;;;;;23.55;11.75;;;5.10;98.40;;;;;;5021493;28;20438;-79
2021/11/26 04:27:50;;;;;;;22.40;12.20;;;5.10;98.50;;;;;;5016412;28;20064;-79
2021/11/26 04:30:19;;;;;;;17.33;10.98;;;5.00;98.40;;;;;;5029740;28;20036;-80
2021/11/26 04:32:46;;;;;;;19.42;11.40;;;5.10;98.50;;;;;;5018027;28;20040;-79
2021/11/26 04:35:12;;;;;;;18.58;11.90;;;5.10;98.50;;;;;;5021292;28;20033;-80
2021/11/26 04:37:39;;;;;;;20.17;12.50;;;5.00;98.60;;;;;;5016242;28;20037;-80
2021/11/26 04:40:08;;;;;;;19.63;11.90;;;5.00;98.70;;;;;;5026601;28;20096;-80
2021/11/26 04:42:34;;;;;;;18.15;11.68;;;5.00;98.70;;;;;;5048097;28;20030;-79
2021/11/26 04:44:59;;;;;;;16.50;11.68;;;4.90;98.70;;;;;;5030470;28;20534;-80
2021/11/26 04:47:25;;;;;;;20.50;12.55;;;5.00;98.80;;;;;;5020056;28;20037;-80
2021/11/26 04:49:50;;;;;;;20.67;11.57;;;5.00;98.80;;;;;;5019073;28;20037;-80
2021/11/26 04:52:16;;;;;;;21.90;12.35;;;5.00;98.70;;;;;;5029569;28;20029;-79
2021/11/26 04:54:41;;;;;;;16.75;11.27;;;5.10;98.70;;;;;;5017782;28;20025;-80
2021/11/26 04:57:07;;;;;;;21.15;12.00;;;5.10;98.70;;;;;;5028852;28;20044;-80
2021/11/26 04:59:33;;;;;;;18.90;12.48;;;5.20;98.70;;;;;;5029405;28;20170;-79
2021/11/26 05:01:58;;;;;;;19.77;12.30;;;5.20;98.60;;;;;;5027980;28;20034;-79
2021/11/26 05:04:24;;;;;;;19.80;11.80;;;5.20;98.70;;;;;;5050948;28;20025;-80
2021/11/26 05:06:50;;;;;;;19.15;11.63;;;5.20;98.60;;;;;;5026338;28;20044;-80
2021/11/26 05:09:16;;;;;;;16.73;11.25;;;5.20;98.50;;;;;;5020605;28;20112;-80
2021/11/26 05:11:41;;;;;;;17.85;11.70;;;5.10;98.60;;;;;;5028536;28;20167;-79
2021/11/26 05:14:08;;;;;;;21.75;12.15;;;5.10;98.60;;;;;;5021578;28;20533;-79
2021/11/26 05:16:34;;;;;;;17.70;12.35;;;5.10;98.60;;;;;;5019389;28;20026;-79
2021/11/26 05:18:59;;;;;;;20.38;11.90;;;5.10;98.60;;;;;;5018790;28;20762;-79
2021/11/26 05:21:25;;;;;;;19.45;11.25;;;5.10;98.60;;;;;;5022720;28;20481;-80
2021/11/26 05:23:51;;;;;;;18.65;10.98;;;5.10;98.60;;;;;;5014506;28;20033;-80
2021/11/26 05:26:16;;;;;;;23.48;12.55;;;5.10;98.60;;;;;;5015644;28;20030;-79
2021/11/26 05:28:42;;;;;;;17.20;11.63;;;5.10;98.50;;;;;;5022926;28;20041;-80
2021/11/26 05:31:07;;;;;;;18.75;11.63;;;5.00;98.60;;;;;;5030165;28;20049;-80
2021/11/26 05:33:33;;;;;;;19.10;12.23;;;5.00;98.60;;;;;;5024295;28;20077;-80
2021/11/26 05:35:59;;;;;;;18.65;12.38;;;5.00;98.60;;;;;;5035754;28;20029;-80
2021/11/26 05:38:24;;;;;;;21.40;12.07;;;5.00;98.60;;;;;;5029085;28;20112;-80
2021/11/26 05:40:51;;;;;;;22.60;13.43;;;5.00;98.60;;;;;;5022719;28;20115;-80
2021/11/26 05:43:17;;;;;;;22.70;13.48;;;4.90;98.70;;;;;;5027280;28;20040;-81
2021/11/26 05:45:43;;;;;;;21.63;12.93;;;4.80;99.00;;;;;;5022101;28;20026;-80
2021/11/26 05:48:09;;;;;;;20.35;12.00;;;4.90;99.00;;;;;;5035155;28;20037;-80
2021/11/26 05:50:35;;;;;;;20.13;12.45;;;4.90;99.00;;;;;;5018275;28;20117;-80
2021/11/26 05:53:01;;;;;;;23.90;13.50;;;4.90;99.00;;;;;;5029340;28;20490;-79
2021/11/26 05:55:27;;;;;;;19.90;13.45;;;4.90;98.90;;;;;;5026789;28;20029;-81
2021/11/26 05:57:54;;;;;;;20.65;12.75;;;4.80;99.00;;;;;;5027956;28;20123;-79
2021/11/26 06:00:22;;;;;;;19.63;13.50;;;4.80;98.90;;;;;;5032901;28;20056;-81
2021/11/26 06:02:48;;;;;;;22.02;12.38;;;4.70;98.90;;;;;;5028104;28;20422;-80
2021/11/26 06:05:14;;;;;;;19.55;12.45;;;4.70;99.00;;;;;;5025654;28;20025;-80
2021/11/26 06:07:40;;;;;;;19.77;12.23;;;4.70;99.00;;;;;;5027870;28;20029;-81
2021/11/26 06:10:10;;;;;;;20.33;13.10;;;4.60;99.10;;;;;;5028053;28;20037;-80
2021/11/26 06:12:40;;;;;;;22.08;12.43;;;4.50;99.30;;;;;;5025846;28;20124;-81
2021/11/26 06:15:06;;;;;;;22.27;12.93;;;4.60;99.30;;;;;;5028387;28;20030;-80
2021/11/26 06:17:32;;;;;;;19.77;12.35;;;4.50;99.30;;;;;;5020611;28;20026;-81
2021/11/26 06:19:57;;;;;;;20.48;12.85;;;4.50;99.20;;;;;;5012328;28;20371;-80
2021/11/26 06:22:23;;;;;;;19.38;11.05;;;4.50;99.40;;;;;;5032714;28;20426;-79
2021/11/26 06:24:48;;;;;;;18.20;12.57;;;4.50;99.40;;;;;;5033204;28;20041;-80
2021/11/26 06:27:14;;;;;;;17.05;11.75;;;4.50;99.40;;;;;;5027991;28;20125;-80
2021/11/26 06:29:39;;;;;;;21.63;13.02;;;4.50;99.40;;;;;;5033607;28;20083;-80
2021/11/26 06:32:05;;;;;;;17.75;11.13;;;4.50;99.30;;;;;;5033515;28;20958;-80
2021/11/26 06:34:31;;;;;;;19.42;12.05;;;4.60;99.30;;;;;;5032745;28;20025;-79
2021/11/26 06:36:57;;;;;;;20.60;12.35;;;4.60;99.30;;;;;;5032922;28;20044;-80
2021/11/26 06:39:22;;;;;;;17.52;11.77;;;4.60;99.30;;;;;;5033588;28;20406;-79
2021/11/26 06:41:48;;;;;;;18.88;12.20;;;4.60;99.20;;;;;;5032978;28;20040;-79
2021/11/26 06:44:13;;;;;;;20.15;11.70;;;4.60;99.30;;;;;;5033479;28;20037;-80
2021/11/26 06:46:39;;;;;;;19.48;12.25;;;4.60;99.20;;;;;;5032607;28;20084;-79
2021/11/26 06:49:04;;;;;;;21.77;12.13;;;4.60;99.20;;;;;;5010819;28;20120;-79
2021/11/26 06:51:30;;;;;;;22.20;12.02;;;4.60;99.10;;;;;;5021990;28;20083;-79
2021/11/26 06:53:57;;;;;;;24.88;12.60;;;4.60;99.20;;;;;;5030411;28;20056;-79
2021/11/26 06:56:23;;;;;;;18.45;12.18;;;4.60;99.20;;;;;;5030163;28;20030;-79
2021/11/26 06:58:49;;;;;;;18.95;12.13;;;4.70;99.10;;;;;;5027295;28;20488;-81
2021/11/26 07:01:14;;;;;;;24.30;13.68;;;4.70;99.10;;;;;;5028578;28;20103;-81
2021/11/26 07:03:40;;;;;;;22.38;11.75;;;4.70;99.10;;;;;;5029834;28;20037;-79
2021/11/26 07:06:05;;;;;;;20.40;12.57;;;4.70;99.10;;;;;;5031504;28;20038;-79
2021/11/26 07:08:31;;;;;;;19.45;13.13;;;4.70;99.00;;;;;;5045955;28;20029;-80
2021/11/26 07:10:57;;;;;;;25.58;13.00;;;4.70;99.00;;;;;;5045174;28;20033;-80
2021/11/26 07:13:22;;;;;;;21.35;12.75;;;4.80;99.00;;;;;;5030755;28;20029;-80
2021/11/26 07:15:48;;;;;;;22.27;12.32;;;4.80;98.80;;;;;;5033296;28;20072;-80
2021/11/26 07:18:14;;;;;;;25.67;13.40;;;4.80;98.70;;;;;;5030252;28;20021;-79
2021/11/26 07:20:40;;;;;;;20.75;12.18;;;4.90;98.70;;;;;;5030202;28;20063;-80
2021/11/26 07:23:06;;;;;;;21.08;12.32;;;4.90;98.80;;;;;;5027104;28;20514;-79
2021/11/26 07:25:32;;;;;;;21.40;11.55;;;4.90;98.70;;;;;;5014311;28;20371;-80
2021/11/26 07:27:57;;;;;;;19.90;11.38;;;4.90;98.50;;;;;;5029329;28;20054;-79
2021/11/26 07:30:23;;;;;;;21.70;11.75;;;4.90;98.50;;;;;;5029722;28;20029;-79
2021/11/26 07:32:48;;;;;;;19.27;12.05;;;4.90;98.60;;;;;;5024734;28;20452;-79
2021/11/26 07:35:14;;;;;;;20.20;11.18;;;4.90;98.50;;;;;;5023140;28;20048;-78
2021/11/26 07:37:41;;;;;;;18.38;11.18;;;5.00;98.60;;;;;;5030491;28;20037;-79
2021/11/26 07:40:11;;;;;;;19.92;12.00;;;5.00;98.40;;;;;;5029311;28;20402;-81
2021/11/26 07:42:37;;;;;;;19.58;11.98;;;5.00;98.40;;;;;;5027507;28;20052;-79
2021/11/26 07:45:03;;;;;;;17.75;10.68;;;5.10;98.40;;;;;;5017293;28;20044;-80
2021/11/26 07:47:29;;;;;;;17.17;11.68;;;5.10;98.20;;;;;;5029720;28;20028;-79
2021/11/26 07:49:55;;;;;;;17.30;11.25;;;5.10;98.00;;;;;;5049706;28;20041;-80
2021/11/26 07:52:20;;;;;;;16.00;10.52;;;5.20;98.10;;;;;;5031049;28;20386;-79
2021/11/26 07:54:47;;;;;;;17.95;11.05;;;5.20;97.90;;;;;;5029534;28;20049;-80
2021/11/26 07:57:13;;;;;;;17.00;11.10;;;5.30;97.90;;;;;;5028628;28;20025;-80
2021/11/26 07:59:38;;;;;;;21.45;10.70;;;5.30;97.80;;;;;;5028589;28;20418;-80
2021/11/26 08:02:04;;;;;;;18.52;11.27;;;5.40;97.90;;;;;;5029333;28;20026;-81
2021/11/26 08:04:30;;;;;;;19.80;11.93;;;5.50;97.90;;;;;;5041876;28;20033;-81
2021/11/26 08:06:55;;;;;;;18.77;11.20;;;5.50;97.80;;;;;;5029476;28;20487;-79
2021/11/26 08:09:21;;;;;;;16.55;11.05;;;5.60;97.30;;;;;;5035589;28;20086;-79
2021/11/26 08:11:48;;;;;;;16.95;10.18;;;5.60;97.40;;;;;;5040795;28;20033;-79
2021/11/26 08:14:15;;;;;;;15.98;10.55;;;5.60;97.00;;;;;;5028618;28;20029;-80
2021/11/26 08:16:40;;;;;;;15.55;9.82;;;5.60;97.20;;;;;;5029305;28;20363;-79
2021/11/26 08:19:07;;;;;;;15.35;9.30;;;5.60;97.10;;;;;;5030129;28;20036;-80
2021/11/26 08:21:34;;;;;;;17.50;10.88;;;5.70;96.80;;;;;;5029118;28;20037;-80
2021/11/26 08:24:04;;;;;;;15.88;9.93;;;5.60;97.00;;;;;;5029480;28;20501;-81
2021/11/26 08:26:30;;;;;;;13.77;10.13;;;5.70;97.20;;;;;;5017088;28;20033;-81
2021/11/26 08:28:56;;;;;;;15.70;9.82;;;5.70;96.80;;;;;;5027717;28;20037;-82
2021/11/26 08:31:22;;;;;;;13.57;9.10;;;5.80;97.10;;;;;;5016185;28;20068;-82
2021/11/26 08:33:47;;;;;;;16.00;9.18;;;5.80;96.70;;;;;;5028840;28;20536;-80
2021/11/26 08:36:14;;;;;;;15.10;9.73;;;5.90;96.70;;;;;;5016969;28;20692;-82
2021/11/26 08:38:40;;;;;;;16.85;8.98;;;5.90;96.60;;;;;;5026630;28;20037;-81
2021/11/26 08:41:06;;;;;;;16.02;9.20;;;5.90;96.50;;;;;;5017344;28;20038;-81
2021/11/26 08:43:32;;;;;;;16.80;8.30;;;6.00;96.80;;;;;;5027256;28;20409;-81
2021/11/26 08:45:57;;;;;;;14.65;9.30;;;6.00;96.70;;;;;;5025101;28;20105;-81
2021/11/26 08:48:23;;;;;;;19.73;8.80;;;6.00;96.70;;;;;;5025115;28;20108;-81
2021/11/26 08:50:49;;;;;;;16.02;8.70;;;6.10;96.40;;;;;;5008904;28;20071;-81
2021/11/26 08:53:16;;;;;;;13.05;8.73;;;6.10;96.30;;;;;;5026536;28;20082;-81
2021/11/26 08:55:46;;;;;;;14.18;8.07;;;6.10;96.20;;;;;;5036282;28;20048;-81
2021/11/26 08:58:14;;;;;;;12.57;7.68;;;6.20;96.20;;;;;;5029491;28;20036;-81
2021/11/26 09:00:41;;;;;;;12.70;7.15;;;6.20;96.00;;;;;;5028500;28;20034;-81
2021/11/26 09:03:07;;;;;;;17.33;8.05;;;6.20;96.20;;;;;;5033965;28;20389;-81
2021/11/26 09:05:34;;;;;;;14.10;7.00;;;6.30;95.70;;;;;;5034672;28;20026;-81
2021/11/26 09:08:02;;;;;;;9.80;6.60;;;6.30;95.50;;;;;;5028777;28;20037;-81
2021/11/26 09:10:34;;;;;;;11.50;6.90;;;6.40;95.40;;;;;;5028927;28;20025;-81
2021/11/26 09:13:01;;;;;;;13.25;6.80;;;6.40;94.80;;;;;;5028802;28;20494;-79
2021/11/26 09:15:26;;;;;;;11.80;6.68;;;6.40;95.00;;;;;;5026313;28;20405;-80
2021/11/26 09:17:53;;;;;;;10.30;5.70;;;6.40;95.20;;;;;;5028835;28;20030;-80
2021/11/26 09:20:19;;;;;;;14.65;6.10;;;6.40;94.60;;;;;;5032329;28;20025;-80
2021/11/26 09:22:44;;;;;;;9.93;5.38;;;6.40;94.60;;;;;;5031177;28;20093;-81
2021/11/26 09:25:11;;;;;;;8.70;5.38;;;6.40;94.40;;;;;;5025144;28;20034;-81
2021/11/26 09:27:36;;;;;;;12.27;5.75;;;6.50;94.60;;;;;;5023033;28;20033;-81
2021/11/26 09:30:05;;;;;;;9.48;6.18;;;6.60;94.60;;;;;;5012738;28;20533;-81
2021/11/26 09:32:30;;;;;;;9.82;5.57;;;6.60;94.50;;;;;;5007262;28;20099;-80
2021/11/26 09:34:56;;;;;;;13.43;5.00;;;6.70;94.00;;;;;;5025987;28;20033;-80
2021/11/26 09:37:21;;;;;;;8.07;4.32;;;6.70;93.30;;;;;;5015305;28;20037;-79
2021/11/26 09:39:47;;;;;;;7.90;4.40;;;6.80;93.30;;;;;;5016040;28;20045;-79
2021/11/26 09:42:13;;;;;;;8.75;4.70;;;6.80;93.40;;;;;;5023206;28;20049;-80
2021/11/26 09:44:41;;;;;;;10.48;5.32;;;6.80;93.40;;;;;;5021622;28;20053;-80
2021/11/26 09:47:07;;;;;;;7.72;4.93;;;6.80;93.40;;;;;;5022298;28;20112;-80
2021/11/26 09:49:33;;;;;;;8.93;4.55;;;6.90;92.60;;;;;;5027068;28;20033;-80
2021/11/26 09:51:59;;;;;;;10.25;5.05;;;6.90;92.90;;;;;;5013202;28;20330;-80
2021/11/26 09:54:25;;;;;;;9.75;4.63;;;7.00;92.60;;;;;;5022642;28;20041;-80
2021/11/26 09:56:51;;;;;;;9.20;4.82;;;7.00;92.20;;;;;;5036853;28;20022;-80
2021/11/26 09:59:17;;;;;;;6.40;4.03;;;6.90;92.60;;;;;;5016124;28;20032;-80
2021/11/26 10:01:43;;;;;;;8.75;4.63;;;6.90;92.80;;;;;;5032353;28;20504;-79
2021/11/26 10:04:20;;;;;;;8.43;5.00;;;7.00;92.50;;;;;;5036805;28;20113;-80
2021/11/26 10:06:46;;;;;;;8.65;5.13;;;7.10;92.70;;;;;;5030731;28;20381;-80
2021/11/26 10:09:20;;;;;;;5.88;3.90;;;7.20;92.60;;;;;;5032928;28;20037;-80
2021/11/26 10:11:57;;;;;;;7.45;4.45;;;7.20;92.10;;;;;;5038564;28;20028;-79
2021/11/26 10:14:28;;;;;;;7.60;4.18;;;7.30;91.90;;;;;;5032693;28;20716;-79
2021/11/26 10:17:14;;;;;;;6.93;4.07;;;7.30;92.00;;;;;;5012487;28;20084;-80
2021/11/26 10:19:45;;;;;;;8.48;4.40;;;7.30;91.10;;;;;;5028360;28;20022;-79
2021/11/26 10:22:22;;;;;;;9.95;4.10;;;7.20;91.70;;;;;;5023727;28;20037;-80
2021/11/26 10:25:13;;;;;;;6.97;3.15;;;7.10;91.30;;;;;;5017453;28;20091;-80
2021/11/26 10:27:44;;;;;;;6.28;3.53;;;7.20;90.60;;;;;;5023877;28;20075;-80
2021/11/26 10:30:23;;;;;;;5.82;2.65;;;7.30;90.90;;;;;;5027219;28;20398;-81
2021/11/26 10:33:15;;;;;;;6.13;2.97;;;7.30;89.70;;;;;;5023034;28;20120;-81
2021/11/26 10:35:56;;;;;;;5.13;2.83;;;7.30;90.00;;;;;;5018822;28;20100;-81
2021/11/26 10:38:27;;;;;;;4.05;2.53;;;7.40;88.80;;;;;;5023005;28;20049;-80
2021/11/26 10:40:57;;;;;;;4.75;1.85;;;7.50;87.50;;;;;;5033728;28;20467;-81
2021/11/26 10:51:40;;;;;;;6.78;2.65;;;7.40;85.90;;;;;;5041553;28;20040;-81
2021/11/26 10:59:40;;;;;;;3.47;2.38;;;7.20;86.10;;;;;;5030871;28;20051;-81
2021/11/26 11:02:07;;;;;;;4.97;2.50;;;7.20;86.00;;;;;;5031081;28;20037;-81
2021/11/26 11:04:34;;;;;;;5.57;2.47;;;7.20;86.20;;;;;;5030410;28;20037;-81
2021/11/26 11:07:10;;;;;;;6.40;2.58;;;7.10;86.50;;;;;;5029994;28;20108;-81
2021/11/26 11:09:52;;;;;;;4.75;2.33;;;7.10;85.10;;;;;;5029548;28;20060;-80
2021/11/26 11:12:29;;;;;;;1.85;1.52;;;7.20;85.00;;;;;;5032165;28;20025;-81
2021/11/26 11:14:58;;;;;;;2.42;1.45;;;7.20;83.80;;;;;;5038784;28;20048;-81
2021/11/26 11:17:28;;;;;;;6.35;1.83;;;7.10;83.20;;;;;;5034556;28;20436;-80
2021/11/26 11:19:57;;;;;;;7.00;1.92;;;7.10;82.30;;;;;;5036484;28;20545;-80
2021/11/26 11:22:24;;;;;;;2.90;1.58;;;7.00;81.90;;;;;;5031624;28;20045;-81
2021/11/26 11:24:50;;;;;;;5.05;1.73;;;7.00;83.20;;;;;;5050901;28;20094;-80
2021/11/26 11:27:15;;;;;;;3.10;2.03;;;6.90;82.60;;;;;;5026482;28;20034;-80
2021/11/26 11:29:42;;;;;;;6.40;2.17;;;7.00;82.60;;;;;;5025930;28;20117;-81
2021/11/26 11:32:09;;;;;;;4.53;2.20;;;7.00;83.00;;;;;;5020094;28;20025;-82
2021/11/26 11:34:36;;;;;;;6.00;2.42;;;7.10;82.60;;;;;;5018635;28;20409;-81
2021/11/26 11:37:06;;;;;;;5.80;2.30;;;7.10;82.90;;;;;;5017950;28;20470;-83
2021/11/26 11:39:44;;;;;;;5.80;2.45;;;7.10;82.30;;;;;;5023279;28;20029;-81
2021/11/26 11:42:09;;;;;;;3.63;1.98;;;7.10;82.40;;;;;;5024939;28;20168;-81
2021/11/26 11:44:37;;;;;;;5.65;2.13;;;7.20;82.00;;;;;;5021015;28;20121;-78
2021/11/26 11:47:17;;;;;;;3.75;1.90;;;7.20;84.00;;;;;;5021011;28;20026;-82
2021/11/26 11:49:42;;;;;;;3.90;1.92;;;7.20;82.20;;;;;;5023012;28;20567;-79
2021/11/26 11:52:11;;;;;;;2.40;1.90;;;7.20;81.90;;;;;;5010174;28;20022;-80
2021/11/26 11:54:39;;;;;;;3.08;2.20;;;7.20;82.60;;;;;;5020597;28;20060;-83
2021/11/26 11:57:06;;;;;;;3.03;2.00;;;7.20;83.00;;;;;;5020226;28;20124;-82
2021/11/26 11:59:38;;;;;;;6.30;2.00;;;7.10;82.20;;;;;;5019962;28;20033;-83
2021/11/26 12:02:07;;;;;;;9.80;5.38;;;7.00;83.10;;;;;;5028000;28;20516;-83
2021/11/26 12:04:43;;;;;;;11.80;5.07;;;7.00;83.40;;;;;;5041160;28;20028;-83
2021/11/26 12:07:26;;;;;;;4.80;2.60;;;7.00;83.70;;;;;;5029445;28;20024;-81
2021/11/26 12:10:01;;;;;;;5.65;3.38;;;7.00;84.90;;;;;;5019687;28;20049;-82
2021/11/26 12:12:27;;;;;;;3.15;1.90;;;7.00;84.10;;;;;;5024586;28;20030;-84
2021/11/26 12:14:55;;;;;;;3.08;1.88;;;7.00;84.50;;;;;;5027615;28;20033;-82
2021/11/26 12:17:26;;;;;;;6.88;2.42;;;7.00;84.80;;;;;;5027659;28;20029;-81
2021/11/26 12:20:21;;;;;;;7.38;2.35;;;7.10;85.10;;;;;;5026487;28;20052;-83
2021/11/26 12:22:56;;;;;;;3.80;2.20;;;7.20;84.50;;;;;;5025812;28;20034;-84
2021/11/26 12:25:49;;;;;;;6.65;2.65;;;7.20;84.60;;;;;;5017939;28;20016;-82
2021/11/26 12:28:24;;;;;;;6.22;2.30;;;7.40;84.20;;;;;;5036611;28;20557;-82
2021/11/26 12:31:02;;;;;;;3.00;1.58;;;7.40;84.20;;;;;;5025825;28;20501;-82
2021/11/26 12:33:29;;;;;;;3.35;1.67;;;7.40;84.90;;;;;;5026874;28;20025;-82
2021/11/26 12:36:00;;;;;;;4.63;1.95;;;7.50;84.40;;;;;;5027538;28;20116;-82
2021/11/26 12:38:41;;;;;;;3.80;1.98;;;7.60;83.50;;;;;;5028812;28;20025;-83
2021/11/26 12:41:07;;;;;;;4.65;1.90;;;7.60;82.90;;;;;;5022607;28;20115;-82
2021/11/26 12:43:45;;;;;;;3.03;1.85;;;7.70;83.00;;;;;;5025986;28;20065;-82
2021/11/26 12:46:41;;;;;;;5.53;2.03;;;7.80;83.00;;;;;;5027632;28;20470;-82
2021/11/26 12:52:09;;;;;;;4.18;1.77;;;7.80;82.00;;;;;;5008581;28;20525;-82
2021/11/26 12:54:37;;;;;;;5.13;1.90;;;7.90;81.80;;;;;;5006861;28;20062;-81
2021/11/26 12:57:15;;;;;;;4.10;2.05;;;7.80;82.20;;;;;;5028744;28;20025;-82
2021/11/26 12:59:43;;;;;;;2.72;2.20;;;7.80;82.50;;;;;;5012487;28;20096;-82
2021/11/26 13:02:11;;;;;;;5.50;2.72;;;7.90;83.70;;;;;;5024071;28;20037;-83
2021/11/26 13:04:49;;;;;;;6.90;2.33;;;7.90;82.70;;;;;;5024770;28;20029;-83